createdAt,value
2018-03-20T00:00:30.132Z,36.20
2018-03-20T00:02:57.653Z,36.00
2018-03-20T00:05:25.213Z,30.40
2018-03-20T00:07:52.777Z,29.60
2018-03-20T00:10:20.322Z,37.33
2018-03-20T00:12:47.859Z,31.30
2018-03-20T00:15:15.438Z,30.33
2018-03-20T00:17:43.713Z,34.80
2018-03-20T00:20:11.224Z,29.80
2018-03-20T00:22:38.729Z,31.20
2018-03-20T00:25:06.258Z,27.73
2018-03-20T00:27:34.579Z,26.73
2018-03-20T00:30:02.081Z,28.80
2018-03-20T00:32:29.584Z,33.10
2018-03-20T00:34:57.082Z,32.57
2018-03-20T00:37:24.606Z,33.83
2018-03-20T00:39:52.096Z,34.47
2018-03-20T00:42:19.630Z,31.00
2018-03-20T00:44:47.157Z,35.40
2018-03-20T00:47:14.723Z,25.70
2018-03-20T00:49:42.237Z,30.13
2018-03-20T00:52:09.727Z,32.67
2018-03-20T00:54:37.224Z,30.63
2018-03-20T00:57:04.728Z,32.10
2018-03-20T00:59:33.124Z,32.50
2018-03-20T01:02:00.629Z,35.50
2018-03-20T01:04:28.164Z,34.47
2018-03-20T01:06:55.662Z,32.53
2018-03-20T01:09:23.251Z,32.23
2018-03-20T01:11:50.755Z,34.70
2018-03-20T01:14:18.365Z,36.63
2018-03-20T01:16:45.931Z,36.47
2018-03-20T01:19:13.433Z,33.57
2018-03-20T01:21:41.742Z,36.70
2018-03-20T01:24:10.018Z,31.47
2018-03-20T01:26:42.253Z,35.10
2018-03-20T01:29:09.861Z,35.03
2018-03-20T01:31:37.354Z,34.77
2018-03-20T01:34:04.862Z,38.70
2018-03-20T01:36:33.134Z,41.23
2018-03-20T01:39:01.512Z,32.10
2018-03-20T01:41:29.785Z,40.17
2018-03-20T01:43:58.039Z,41.43
2018-03-20T01:46:25.543Z,41.70
2018-03-20T01:48:53.104Z,35.93
2018-03-20T01:51:20.619Z,34.30
2018-03-20T01:53:48.916Z,35.83
2018-03-20T01:56:16.433Z,40.60
2018-03-20T01:58:43.947Z,35.57
2018-03-20T02:01:11.440Z,32.17
2018-03-20T02:03:38.964Z,38.60
2018-03-20T02:06:06.457Z,39.50
2018-03-20T02:08:33.966Z,32.67
2018-03-20T02:11:01.480Z,34.27
2018-03-20T02:13:29.101Z,34.27
2018-03-20T02:15:56.606Z,33.97
2018-03-20T02:18:24.900Z,33.27
2018-03-20T02:20:52.552Z,29.83
2018-03-20T02:23:20.830Z,34.60
2018-03-20T02:25:49.104Z,34.07
2018-03-20T02:28:17.367Z,36.57
2018-03-20T02:30:45.685Z,37.43
2018-03-20T02:33:13.196Z,39.13
2018-03-20T02:35:41.488Z,39.07
2018-03-20T02:38:08.992Z,32.60
2018-03-20T02:40:36.505Z,33.60
2018-03-20T02:43:04.042Z,32.30
2018-03-20T02:45:32.320Z,33.10
2018-03-20T02:48:00.619Z,33.33
2018-03-20T02:50:28.123Z,34.70
2018-03-20T02:52:55.668Z,33.80
2018-03-20T02:55:23.297Z,33.43
2018-03-20T02:57:50.816Z,33.13
2018-03-20T03:00:18.322Z,32.63
2018-03-20T03:02:45.842Z,39.23
2018-03-20T03:05:14.113Z,30.63
2018-03-20T03:07:42.396Z,34.37
2018-03-20T03:10:10.678Z,34.40
2018-03-20T03:12:38.969Z,33.90
2018-03-20T03:15:06.463Z,35.77
2018-03-20T03:17:33.972Z,35.53
2018-03-20T03:20:01.472Z,32.43
2018-03-20T03:22:28.985Z,33.27
2018-03-20T03:24:56.471Z,31.70
2018-03-20T03:27:23.997Z,28.57
2018-03-20T03:29:51.560Z,25.07
2018-03-20T03:32:19.118Z,25.00
2018-03-20T03:34:46.624Z,24.83
2018-03-20T03:37:14.117Z,28.27
2018-03-20T03:39:42.393Z,24.90
2018-03-20T03:42:10.661Z,27.77
2018-03-20T03:44:38.930Z,26.37
2018-03-20T03:47:07.205Z,27.23
2018-03-20T03:49:35.467Z,30.70
2018-03-20T03:52:03.061Z,25.20
2018-03-20T03:54:30.555Z,29.07
2018-03-20T03:56:58.050Z,27.30
2018-03-20T03:59:26.334Z,31.17
2018-03-20T04:01:54.725Z,27.80
2018-03-20T04:04:22.220Z,26.07
2018-03-20T04:06:49.731Z,25.10
2018-03-20T04:09:17.291Z,23.73
2018-03-20T04:11:44.795Z,23.70
2018-03-20T04:14:12.308Z,24.50
2018-03-20T04:16:39.813Z,23.83
2018-03-20T04:19:07.308Z,26.43
2018-03-20T04:21:35.583Z,27.87
2018-03-20T04:24:03.854Z,27.37
2018-03-20T04:26:32.125Z,25.73
2018-03-20T04:29:00.406Z,26.30
2018-03-20T04:31:28.681Z,29.60
2018-03-20T04:33:56.935Z,25.60
2018-03-20T04:36:24.529Z,25.43
2018-03-20T04:38:52.043Z,26.80
2018-03-20T04:41:19.546Z,30.90
2018-03-20T04:43:47.061Z,27.17
2018-03-20T04:46:14.669Z,27.83
2018-03-20T04:48:42.193Z,32.73
2018-03-20T04:51:10.460Z,26.87
2018-03-20T04:53:37.972Z,30.20
2018-03-20T04:56:05.464Z,31.80
2018-03-20T04:58:32.970Z,30.70
2018-03-20T05:01:00.484Z,35.33
2018-03-20T05:03:27.993Z,33.73
2018-03-20T05:05:55.494Z,29.50
2018-03-20T05:08:23.037Z,27.10
2018-03-20T05:10:50.645Z,36.40
2018-03-20T05:13:18.205Z,30.07
2018-03-20T05:15:45.720Z,31.13
2018-03-20T05:18:13.218Z,32.67
2018-03-20T05:23:52.141Z,29.70
2018-03-20T05:26:20.417Z,32.67
2018-03-20T05:28:48.712Z,31.83
2018-03-20T05:31:16.219Z,26.07
2018-03-20T05:33:43.714Z,29.13
2018-03-20T05:36:11.257Z,31.13
2018-03-20T05:38:39.534Z,30.40
2018-03-20T05:41:07.065Z,27.20
2018-03-20T05:43:34.563Z,28.67
2018-03-20T05:46:02.106Z,28.20
2018-03-20T05:51:38.872Z,29.27
2018-03-20T05:54:06.368Z,31.73
2018-03-20T05:56:33.860Z,30.10
2018-03-20T05:59:01.383Z,28.13
2018-03-20T06:01:28.894Z,28.40
2018-03-20T06:03:56.416Z,25.70
2018-03-20T06:06:23.956Z,31.63
2018-03-20T06:08:51.463Z,30.37
2018-03-20T06:11:18.977Z,31.83
2018-03-20T06:13:46.533Z,23.10
2018-03-20T06:16:14.036Z,28.00
2018-03-20T06:18:41.653Z,26.87
2018-03-20T06:21:09.205Z,27.17
2018-03-20T06:23:36.691Z,27.40
2018-03-20T06:26:04.199Z,24.93
2018-03-20T06:28:32.468Z,28.60
2018-03-20T06:31:00.742Z,30.43
2018-03-20T06:33:29.032Z,28.73
2018-03-20T06:35:57.314Z,26.07
2018-03-20T06:38:24.823Z,27.60
2018-03-20T06:40:52.339Z,24.47
2018-03-20T06:43:19.832Z,27.57
2018-03-20T06:45:47.438Z,27.37
2018-03-20T06:48:15.709Z,29.40
2018-03-20T06:50:44.008Z,27.63
2018-03-20T06:53:11.510Z,28.93
2018-03-20T06:55:39.021Z,29.20
2018-03-20T06:58:06.531Z,28.57
2018-03-20T07:00:34.828Z,28.73
2018-03-20T07:03:03.211Z,30.37
2018-03-20T07:05:30.729Z,36.00
2018-03-20T07:07:58.326Z,26.07
2018-03-20T07:10:25.826Z,35.83
2018-03-20T07:12:53.355Z,32.73
2018-03-20T07:15:20.898Z,30.67
2018-03-20T07:17:48.393Z,35.03
2018-03-20T07:20:15.906Z,34.20
2018-03-20T07:22:44.198Z,29.63
2018-03-20T07:25:11.836Z,30.67
2018-03-20T07:27:40.005Z,30.57
2018-03-20T07:30:08.291Z,31.17
2018-03-20T07:32:35.801Z,27.37
2018-03-20T07:35:03.325Z,29.40
2018-03-20T07:37:30.889Z,35.40
2018-03-20T07:39:58.387Z,31.60
2018-03-20T07:42:25.902Z,35.17
2018-03-20T07:44:53.429Z,32.87
2018-03-20T07:47:21.700Z,30.40
2018-03-20T07:49:49.971Z,34.47
2018-03-20T07:52:18.261Z,29.67
2018-03-20T07:54:45.832Z,30.07
2018-03-20T07:57:13.376Z,27.90
2018-03-20T07:59:40.899Z,29.47
2018-03-20T08:02:08.413Z,26.20
2018-03-20T08:04:35.939Z,27.67
2018-03-20T08:07:04.225Z,30.30
2018-03-20T08:09:31.794Z,27.90
2018-03-20T08:11:59.309Z,27.17
2018-03-20T08:14:26.889Z,27.03
2018-03-20T08:16:55.273Z,24.70
2018-03-20T08:19:22.882Z,26.03
2018-03-20T08:21:50.347Z,27.30
2018-03-20T08:24:18.347Z,29.20
2018-03-20T08:26:46.618Z,27.73
2018-03-20T08:29:29.016Z,23.77
2018-03-20T08:31:56.562Z,25.40
2018-03-20T08:34:28.020Z,24.60
2018-03-20T08:36:56.275Z,24.03
2018-03-20T08:39:23.876Z,26.77
2018-03-20T08:41:51.409Z,22.70
2018-03-20T08:44:19.071Z,24.60
2018-03-20T08:46:46.552Z,24.93
2018-03-20T08:49:14.059Z,28.50
2018-03-20T08:51:41.669Z,23.47
2018-03-20T08:54:09.172Z,21.43
2018-03-20T08:56:36.689Z,21.47
2018-03-20T08:59:04.245Z,21.40
2018-03-20T09:01:31.726Z,20.60
2018-03-20T09:03:59.225Z,20.10
2018-03-20T09:06:27.530Z,20.73
2018-03-20T09:08:55.028Z,21.50
2018-03-20T09:11:22.643Z,20.10
2018-03-20T09:13:50.965Z,17.23
2018-03-20T09:16:18.464Z,15.27
2018-03-20T09:18:46.745Z,17.03
2018-03-20T09:21:14.253Z,20.83
2018-03-20T09:23:41.861Z,19.40
2018-03-20T09:26:09.415Z,15.07
2018-03-20T09:28:37.676Z,14.03
2018-03-20T09:31:05.953Z,17.93
2018-03-20T09:33:34.229Z,17.33
2018-03-20T09:36:02.621Z,15.63
2018-03-20T09:38:30.115Z,15.10
2018-03-20T09:40:57.741Z,13.50
2018-03-20T09:43:25.292Z,19.03
2018-03-20T09:45:52.807Z,14.20
2018-03-20T09:48:20.291Z,14.50
2018-03-20T09:50:48.593Z,14.20
2018-03-20T09:53:16.089Z,15.33
2018-03-20T09:55:43.599Z,12.80
2018-03-20T09:58:11.105Z,12.63
2018-03-20T10:00:38.628Z,12.77
2018-03-20T10:03:06.129Z,11.30
2018-03-20T10:05:33.619Z,12.10
2018-03-20T10:08:01.117Z,12.80
2018-03-20T10:10:28.621Z,11.23
2018-03-20T10:12:56.924Z,12.97
2018-03-20T10:15:24.421Z,12.27
2018-03-20T10:17:51.921Z,13.93
2018-03-20T10:20:19.514Z,15.30
2018-03-20T10:22:47.007Z,13.50
2018-03-20T10:25:14.516Z,13.53
2018-03-20T10:27:42.056Z,15.50
2018-03-20T10:30:09.552Z,14.63
2018-03-20T10:32:37.065Z,13.27
2018-03-20T10:35:05.327Z,14.70
2018-03-20T10:37:33.610Z,16.40
2018-03-20T10:40:01.908Z,11.80
2018-03-20T10:42:29.402Z,13.37
2018-03-20T10:44:56.923Z,13.77
2018-03-20T10:47:24.424Z,12.23
2018-03-20T10:49:51.936Z,13.73
2018-03-20T10:52:19.445Z,11.23
2018-03-20T10:54:46.923Z,10.00
2018-03-20T10:57:15.199Z,11.13
2018-03-20T10:59:43.456Z,10.60
2018-03-20T11:02:16.687Z,11.30
2018-03-20T11:04:44.181Z,11.87
2018-03-20T11:07:11.673Z,11.10
2018-03-20T11:09:39.941Z,9.20
2018-03-20T11:12:08.203Z,9.00
2018-03-20T11:14:36.482Z,10.50
2018-03-20T11:17:04.744Z,9.00
2018-03-20T11:19:32.223Z,8.93
2018-03-20T11:22:00.508Z,9.40
2018-03-20T11:24:28.012Z,9.73
2018-03-20T11:26:55.557Z,9.17
2018-03-20T11:29:23.049Z,8.30
2018-03-20T11:31:50.533Z,8.60
2018-03-20T11:34:18.794Z,8.93
2018-03-20T11:36:47.091Z,8.83
2018-03-20T11:39:14.579Z,8.70
2018-03-20T11:41:42.081Z,9.43
2018-03-20T11:44:10.334Z,13.30
2018-03-20T11:46:37.841Z,9.40
2018-03-20T11:49:05.392Z,9.50
2018-03-20T11:51:32.925Z,9.40
2018-03-20T11:54:01.177Z,9.03
2018-03-20T11:56:28.655Z,8.63
2018-03-20T11:58:56.920Z,8.67
2018-03-20T12:01:24.414Z,9.43
2018-03-20T12:03:51.983Z,8.30
2018-03-20T12:06:19.463Z,10.13
2018-03-20T12:08:51.723Z,10.17
2018-03-20T12:11:19.228Z,10.90
2018-03-20T12:13:46.892Z,11.20
2018-03-20T12:16:15.175Z,10.30
2018-03-20T12:18:43.421Z,10.50
2018-03-20T12:21:10.946Z,9.63
2018-03-20T12:23:38.442Z,10.13
2018-03-20T12:26:06.039Z,10.03
2018-03-20T12:28:33.568Z,10.40
2018-03-20T12:31:01.836Z,10.37
2018-03-20T12:33:30.118Z,9.70
2018-03-20T12:35:58.372Z,9.23
2018-03-20T12:38:25.882Z,8.93
2018-03-20T12:40:53.429Z,9.07
2018-03-20T12:43:20.977Z,10.80
2018-03-20T12:45:49.245Z,7.03
2018-03-20T12:48:17.530Z,9.07
2018-03-20T12:50:45.107Z,7.70
2018-03-20T12:53:12.596Z,7.63
2018-03-20T12:55:40.101Z,9.90
2018-03-20T12:58:07.588Z,10.03
2018-03-20T13:00:35.104Z,9.53
2018-03-20T13:03:03.369Z,8.03
2018-03-20T13:05:31.661Z,9.17
2018-03-20T13:07:59.221Z,12.70
2018-03-20T13:10:26.687Z,8.53
2018-03-20T13:12:54.185Z,8.50
2018-03-20T13:15:21.783Z,11.27
2018-03-20T13:17:50.049Z,8.30
2018-03-20T13:20:18.324Z,8.53
2018-03-20T13:22:46.621Z,8.20
2018-03-20T13:25:14.163Z,8.60
2018-03-20T13:27:42.442Z,8.57
2018-03-20T13:30:10.682Z,8.17
2018-03-20T13:32:38.214Z,8.93
2018-03-20T13:35:05.753Z,9.37
2018-03-20T13:37:33.302Z,21.20
2018-03-20T13:40:00.797Z,11.20
2018-03-20T13:42:28.416Z,10.17
2018-03-20T13:44:55.893Z,8.00
2018-03-20T13:47:23.403Z,8.63
2018-03-20T13:49:51.662Z,12.10
2018-03-20T13:52:19.257Z,12.00
2018-03-20T13:54:46.773Z,8.27
2018-03-20T13:57:14.265Z,8.33
2018-03-20T13:59:41.765Z,9.17
2018-03-20T14:02:09.246Z,7.67
2018-03-20T14:04:36.782Z,9.30
2018-03-20T14:07:04.295Z,8.80
2018-03-20T14:09:31.786Z,8.33
2018-03-20T14:11:59.285Z,9.43
2018-03-20T14:14:27.535Z,11.13
2018-03-20T14:16:55.165Z,9.20
2018-03-20T14:19:22.663Z,13.20
2018-03-20T14:21:50.171Z,8.20
2018-03-20T14:24:17.661Z,8.90
2018-03-20T14:26:45.180Z,10.17
2018-03-20T14:29:12.673Z,7.73
2018-03-20T14:31:40.173Z,12.20
2018-03-20T14:34:08.462Z,9.00
2018-03-20T14:36:35.943Z,12.30
2018-03-20T14:39:03.462Z,9.50
2018-03-20T14:41:31.708Z,11.57
2018-03-20T14:43:59.241Z,10.73
2018-03-20T14:46:26.729Z,17.03
2018-03-20T14:48:54.238Z,9.30
2018-03-20T14:51:21.736Z,11.40
2018-03-20T14:53:50.034Z,10.50
2018-03-20T14:56:18.293Z,11.17
2018-03-20T14:58:45.771Z,10.70
2018-03-20T15:01:14.038Z,9.47
2018-03-20T15:03:42.302Z,11.63
2018-03-20T15:06:10.619Z,15.10
2018-03-20T15:08:38.116Z,10.37
2018-03-20T15:11:05.601Z,10.50
2018-03-20T15:13:33.873Z,12.67
2018-03-20T15:16:02.180Z,10.97
2018-03-20T15:18:29.671Z,11.03
2018-03-20T15:20:57.164Z,9.70
2018-03-20T15:23:25.442Z,12.10
2018-03-20T15:25:52.927Z,11.83
2018-03-20T15:28:20.437Z,10.40
2018-03-20T15:30:48.025Z,13.07
2018-03-20T15:33:15.538Z,15.10
2018-03-20T15:35:43.045Z,11.50
2018-03-20T15:38:10.546Z,13.43
2018-03-20T15:40:38.063Z,11.23
2018-03-20T15:43:05.608Z,14.33
2018-03-20T15:45:33.101Z,16.07
2018-03-20T15:48:00.621Z,12.30
2018-03-20T15:50:28.103Z,11.23
2018-03-20T15:52:55.740Z,10.47
2018-03-20T15:55:23.207Z,14.10
2018-03-20T15:57:50.698Z,11.63
2018-03-20T16:00:18.208Z,13.80
2018-03-20T16:02:45.724Z,10.20
2018-03-20T16:05:13.316Z,11.73
2018-03-20T16:07:40.878Z,11.67
2018-03-20T16:10:08.428Z,16.00
2018-03-20T16:12:36.818Z,12.63
2018-03-20T16:15:04.334Z,11.87
2018-03-20T16:17:31.941Z,10.57
2018-03-20T16:19:59.464Z,10.47
2018-03-20T16:22:27.744Z,16.97
2018-03-20T16:24:56.001Z,15.07
2018-03-20T16:27:24.326Z,14.00
2018-03-20T16:29:51.842Z,16.37
2018-03-20T16:32:20.140Z,12.90
2018-03-20T16:34:47.658Z,12.63
2018-03-20T16:37:15.140Z,19.67
2018-03-20T16:39:43.409Z,11.90
2018-03-20T16:42:11.824Z,20.53
2018-03-20T16:44:39.356Z,11.13
2018-03-20T16:47:07.618Z,14.73
2018-03-20T16:49:36.098Z,12.27
2018-03-20T16:52:04.366Z,12.80
2018-03-20T16:54:31.847Z,11.27
2018-03-20T16:56:59.401Z,12.97
2018-03-20T16:59:27.015Z,12.53
2018-03-20T17:01:54.490Z,12.53
2018-03-20T17:04:21.979Z,13.43
2018-03-20T17:06:49.557Z,15.30
2018-03-20T17:09:17.040Z,13.30
2018-03-20T17:11:44.545Z,16.67
2018-03-20T17:14:12.070Z,15.47
2018-03-20T17:16:39.662Z,17.03
2018-03-20T17:19:07.177Z,19.60
2018-03-20T17:21:34.683Z,17.07
2018-03-20T17:24:02.186Z,14.60
2018-03-20T17:26:29.796Z,13.20
2018-03-20T17:28:57.284Z,11.90
2018-03-20T17:31:24.783Z,14.87
2018-03-20T17:33:53.057Z,17.67
2018-03-20T17:36:21.357Z,15.93
2018-03-20T17:38:50.664Z,16.37
2018-03-20T17:41:18.202Z,16.70
2018-03-20T17:43:45.706Z,15.73
2018-03-20T17:46:13.286Z,18.20
2018-03-20T17:48:40.765Z,15.33
2018-03-20T17:51:09.052Z,14.23
2018-03-20T17:53:36.556Z,17.10
2018-03-20T17:56:04.072Z,15.83
2018-03-20T17:58:31.645Z,13.90
2018-03-20T18:00:59.242Z,19.53
2018-03-20T18:03:26.716Z,19.13
2018-03-20T18:05:54.993Z,14.10
2018-03-20T18:08:23.269Z,13.23
2018-03-20T18:10:51.548Z,17.47
2018-03-20T18:13:19.807Z,21.77
2018-03-20T18:15:47.325Z,17.90
2018-03-20T18:18:14.842Z,13.67
2018-03-20T18:20:43.146Z,22.97
2018-03-20T18:23:10.635Z,15.33
2018-03-20T18:25:38.137Z,22.10
2018-03-20T18:28:06.438Z,22.70
2018-03-20T18:30:34.687Z,18.37
2018-03-20T18:33:02.212Z,19.50
2018-03-20T18:35:30.569Z,16.27
2018-03-20T18:37:58.072Z,14.33
2018-03-20T18:40:25.579Z,19.23
2018-03-20T18:42:53.092Z,13.97
2018-03-20T18:45:20.596Z,12.70
2018-03-20T18:47:48.104Z,14.07
2018-03-20T18:50:15.620Z,15.30
2018-03-20T18:52:43.141Z,18.17
2018-03-20T18:55:10.801Z,18.30
2018-03-20T18:57:38.329Z,17.50
2018-03-20T19:00:06.610Z,15.37
2018-03-20T19:02:34.130Z,16.37
2018-03-20T19:05:01.734Z,19.57
2018-03-20T19:07:29.262Z,16.73
2018-03-20T19:09:57.556Z,11.90
2018-03-20T19:12:25.135Z,16.70
2018-03-20T19:14:52.649Z,14.87
2018-03-20T19:17:20.147Z,13.37
2018-03-20T19:19:47.673Z,11.50
2018-03-20T19:22:15.956Z,12.47
2018-03-20T19:24:44.236Z,13.47
2018-03-20T19:27:11.732Z,11.13
2018-03-20T19:29:39.236Z,11.83
2018-03-20T19:32:07.511Z,11.00
2018-03-20T19:34:35.892Z,17.03
2018-03-20T19:37:04.222Z,17.80
2018-03-20T19:39:31.788Z,12.40
2018-03-20T19:41:59.287Z,12.87
2018-03-20T19:44:26.808Z,12.63
2018-03-20T19:46:54.324Z,14.57
2018-03-20T19:49:21.817Z,13.53
2018-03-20T19:51:49.333Z,14.67
2018-03-20T19:54:16.841Z,15.83
2018-03-20T19:56:44.336Z,16.67
2018-03-20T19:59:11.837Z,13.77
2018-03-20T20:01:39.431Z,14.73
2018-03-20T20:04:07.723Z,14.93
2018-03-20T20:06:35.212Z,13.30
2018-03-20T20:09:02.725Z,14.80
2018-03-20T20:11:30.991Z,15.47
2018-03-20T20:13:59.265Z,13.80
2018-03-20T20:16:27.537Z,15.07
2018-03-20T20:18:55.817Z,14.47
2018-03-20T20:21:24.094Z,14.57
2018-03-20T20:23:52.397Z,18.03
2018-03-20T20:26:19.901Z,15.80
2018-03-20T20:28:47.395Z,17.33
2018-03-20T20:31:14.928Z,15.13
2018-03-20T20:33:43.212Z,17.20
2018-03-20T20:36:10.770Z,18.17
2018-03-20T20:38:39.039Z,17.97
2018-03-20T20:41:07.327Z,18.33
2018-03-20T20:43:35.591Z,18.60
2018-03-20T20:46:03.872Z,18.77
2018-03-20T20:48:32.123Z,18.50
2018-03-20T20:50:59.726Z,19.90
2018-03-20T20:53:27.229Z,20.43
2018-03-20T20:55:54.769Z,19.33
2018-03-20T20:58:22.306Z,21.53
2018-03-20T21:00:49.814Z,21.27
2018-03-20T21:03:17.332Z,24.53
2018-03-20T21:05:44.845Z,22.03
2018-03-20T21:08:13.125Z,22.73
2018-03-20T21:10:41.428Z,24.20
2018-03-20T21:13:08.917Z,25.10
2018-03-20T21:15:36.516Z,24.60
2018-03-20T21:18:04.787Z,26.57
2018-03-20T21:20:33.056Z,24.93
2018-03-20T21:23:01.345Z,28.63
2018-03-20T21:25:28.841Z,26.33
2018-03-20T21:27:56.454Z,26.37
2018-03-20T21:30:23.910Z,26.43
2018-03-20T21:32:52.166Z,27.03
2018-03-20T21:35:19.782Z,28.10
2018-03-20T21:37:47.297Z,29.83
2018-03-20T21:40:15.571Z,26.60
2018-03-20T21:42:43.831Z,31.37
2018-03-20T21:45:12.099Z,31.10
2018-03-20T21:47:39.690Z,29.93
2018-03-20T21:50:07.214Z,31.07
2018-03-20T21:52:34.708Z,31.93
2018-03-20T21:55:02.227Z,31.90
2018-03-20T21:57:29.818Z,32.63
2018-03-20T21:59:57.387Z,34.07
2018-03-20T22:02:25.873Z,36.83
2018-03-20T22:04:53.377Z,34.10
2018-03-20T22:07:20.887Z,34.13
2018-03-20T22:09:48.399Z,33.80
2018-03-20T22:12:16.714Z,32.97
2018-03-20T22:14:44.204Z,32.33
2018-03-20T22:17:11.735Z,32.77
2018-03-20T22:19:39.241Z,32.87
2018-03-20T22:22:06.728Z,31.77
2018-03-20T22:24:34.237Z,34.37
2018-03-20T22:27:01.733Z,39.30
2018-03-20T22:29:29.258Z,34.20
2018-03-20T22:31:56.746Z,33.70
2018-03-20T22:34:25.037Z,33.27
2018-03-20T22:39:26.509Z,34.70
2018-03-20T22:41:54.016Z,34.40
2018-03-20T22:44:21.539Z,34.23
2018-03-20T22:46:49.045Z,33.37
2018-03-20T22:49:17.321Z,34.37
2018-03-20T22:51:45.617Z,31.57
2018-03-20T22:54:13.120Z,33.50
2018-03-20T22:56:40.708Z,32.80
2018-03-20T22:59:08.961Z,33.30
2018-03-20T23:01:36.447Z,34.20
2018-03-20T23:04:04.716Z,31.07
2018-03-20T23:06:32.986Z,30.23
2018-03-20T23:09:01.255Z,30.60
2018-03-20T23:11:28.747Z,33.07
2018-03-20T23:13:56.253Z,29.33
2018-03-20T23:16:23.757Z,33.87
2018-03-20T23:18:51.262Z,33.23
2018-03-20T23:21:18.868Z,31.90
2018-03-20T23:23:46.366Z,33.93
2018-03-20T23:26:13.986Z,31.33
2018-03-20T23:28:41.549Z,29.73
2018-03-20T23:31:09.071Z,31.83
2018-03-20T23:33:36.678Z,30.27
2018-03-20T23:36:04.173Z,32.53
2018-03-20T23:38:31.689Z,29.57
2018-03-20T23:40:59.223Z,32.97
2018-03-20T23:43:26.786Z,35.37
2018-03-20T23:45:54.367Z,31.53
2018-03-20T23:48:21.905Z,34.57
2018-03-20T23:50:49.451Z,35.10
2018-03-20T23:53:17.841Z,32.17
2018-03-20T23:55:45.393Z,36.23
2018-03-20T23:58:12.895Z,34.57
